Thursday, November 23, 2017, 7:14 AM GMT
Back to Local

CYYY, Mont Joli, Que.

Location: , , Canada Lat: 48.6
Local Time: 7:14 AM GMT ( 7:14 GMT) Lon: -68.217
Time Zone: GMT Elev: 157 ft

Show me the last for .
Show Decoded

2017-11-23 07:00 METAR CYYY 230700Z 29016KT 15SM OVC020 M04/M07 A2984 RMK SC8 SLP108 =
2017-11-23 06:00 METAR CYYY 230600Z 29013G19KT 15SM OVC019 M03/M06 A2984 RMK SC8 SLP108 =
2017-11-23 05:00 METAR CYYY 230500Z 31015G21KT 15SM OVC025 M03/M05 A2984 RMK SC8 SLP109 =
2017-11-23 04:00 METAR CYYY 230400Z 32016KT 15SM FEW003 OVC021 M02/M05 A2986 RMK SF2SC6 SLP114 =
2017-11-23 03:00 METAR CYYY 230300Z 32015G22KT 15SM SCT003 OVC019 M01/M04 A2985 RMK SF3SC5 SLP112
                 =
2017-11-23 02:38 METAR CYYY 230238Z 32017G22KT 15SM SCT003 OVC018 M01/M03 A2986 RMK SF3SC5 SLP114
                 =
2017-11-23 02:00 METAR CYYY 230200Z 31013KT 15SM -SN SCT002 OVC015 M01/M02 A2986 RMK SF4SC4
                 SLP116 =
2017-11-23 01:40 METAR CYYY 230140Z 32011KT 15SM -SN SCT002 OVC012 M01/M01 A2987 RMK SF4SC4 VIS S
                 4 SLP119 =
2017-11-23 01:10 METAR CYYY 230110Z 31006KT 2SM -SN OVC002 00/00 A2988 RMK SF8 SLP123 =
2017-11-23 01:00 METAR CYYY 230100Z 33006KT 1 3/4SM -SN BR OVC002 00/00 A2987 RMK SN4SF4 PRESFR
                 SLP119 =
2017-11-23 00:47 METAR CYYY 230047Z 34006KT 1 3/4SM -SN BR OVC002 00/00 A2988 RMK SN4SF4 SLP122 =
2017-11-23 00:07 METAR CYYY 230007Z 33008KT 1SM -SN BR VV002 M00/M00 A2988 RMK FG8 SLP124 =
2017-11-23 00:00 METAR CYYY 230000Z 34007KT 1/2SM -SN BR VV002 M00/M00 A2988 RMK FG8 /S03/ SLP123
                 =
2017-11-22 23:44 METAR CYYY 222344Z 31006KT 1/2SM -SN BR VV002 M00/M00 A2988 RMK SN8 SLP124 =
2017-11-22 23:00 METAR CYYY 222300Z 27005KT 1/2SM SN VV001 M00/M00 A2988 RMK SN8 SLP124 =
2017-11-22 22:52 METAR CYYY 222252Z 27004KT 3/4SM -SN VV001 M00/M00 A2988 RMK SN8 SLP123 =
2017-11-22 22:00 METAR CYYY 222200Z CCA 26004KT 1 1/4SM -SN OVC002 M00/M00 A2988 RMK SN6SF2 /S01/
                 SLP124 =
2017-11-22 21:41 METAR CYYY 222141Z 26003KT 1 1/4SM -SN VV002 M00/M00 A2988 RMK SN8 SLP123 =
2017-11-22 21:15 METAR CYYY 222115Z 00000KT 1SM -SN VV003 M00/M00 A2988 RMK SN8 SLP123 =
2017-11-22 21:00 METAR CYYY 222100Z 25002KT 1/2SM SN VV002 M00/M00 A2988 RMK SN8 SLP123 =
2017-11-22 20:00 METAR CYYY 222000Z 29003KT 1/2SM SN VV002 M00/M00 A2989 RMK SN8 SLP125 =
2017-11-22 19:44 METAR CYYY 221944Z 31004KT 250V310 3/4SM -SN VV001 00/M00 A2988 RMK SN8 SLP124 =
2017-11-22 19:39 METAR CYYY 221939Z 29004KT 1SM -SN BR VV002 00/00 A2989 RMK SN8 SLP125 =
2017-11-22 19:36 METAR CYYY 221936Z 28004KT 1 1/4SM -SN BR VV003 00/00 A2989 RMK SN8 SLP125 =
2017-11-22 19:31 METAR CYYY 221931Z 28003KT 2 1/4SM -SN BR OVC004 01/00 A2988 RMK SN6SC2 SLP123 =
2017-11-22 19:25 METAR CYYY 221925Z 27002KT 4SM -SN BR SCT006 OVC015 01/00 A2988 RMK SC4SC4
                 SLP123 =
2017-11-22 19:04 METAR CYYY 221904Z 27003KT 5SM SNRA BR SCT010 OVC017 01/00 A2988 RMK SC3SC5
                 SLP123 =
2017-11-22 19:00 METAR CYYY 221900Z 00000KT 5SM -RA BR SCT010 OVC017 01/00 A2988 RMK SC3SC5
                 SLP122 =
2017-11-22 18:11 METAR CYYY 221811Z 27002KT 6SM -RA BR FEW008 OVC028 01/00 A2988 RMK SF2SC6
                 SLP124 =
2017-11-22 18:00 METAR CYYY 221800Z 00000KT 6SM -RA BR OVC027 01/00 A2988 RMK SC8 SLP123 =
2017-11-22 17:00 METAR CYYY 221700Z 18003KT 6SM -RA BR OVC024 02/00 A2990 RMK SC8 SLP129 =
2017-11-22 16:13 METAR CYYY 221613Z VRB02KT 6SM -RA BKN020 OVC040 02/00 A2990 RMK SC5SC3 SLP131 =
2017-11-22 16:00 METAR CYYY 221600Z 00000KT 6SM SNRA SCT020 OVC040 02/00 A2991 RMK SC4SC4 SLP132
                 =
2017-11-22 15:06 METAR CYYY 221506Z 26003KT 4SM -SNRA BR OVC030 02/M01 A2993 RMK SC8 SLP140 =
2017-11-22 15:00 METAR CYYY 221500Z 27003KT 3SM -RA BR OVC027 02/M01 A2993 RMK SC8 SLP138 =
2017-11-22 14:32 METAR CYYY 221432Z 21002KT 8SM -RA OVC027 03/M01 A2992 RMK SC8 SLP135 =
2017-11-22 14:00 METAR CYYY 221400Z 16002KT 10SM OVC027 03/M01 A2990 RMK SC8 SLP130 =
2017-11-22 13:00 METAR CYYY 221300Z 14003KT 10SM FEW003 OVC032 01/M01 A2991 RMK SC2SC6 SLP131 =
2017-11-22 12:00 METAR CYYY 221200Z 10003KT 060V130 8SM OVC032 00/M02 A2991 RMK SC8 SLP133 =
2017-11-22 11:00 METAR CYYY 221100Z 13002KT 10SM OVC045 00/M02 A2989 RMK SC8 SLP128 =
2017-11-22 10:00 METAR CYYY 221000Z 01005KT 15SM OVC065 M00/M02 A2988 RMK SC8 SLP123 =
2017-11-22 09:00 METAR CYYY 220900Z VRB02KT 15SM OVC110 M01/M03 A2987 RMK AC8 SLP118 =
2017-11-22 08:00 METAR CYYY 220800Z 00000KT 15SM BKN150 M01/M03 A2986 RMK AC7 SLP117 =

Support USWX by starting your Amazon purchase here.